Time;durP1;ratioP1;P1;durP2;ratioP2;P2;SDS_P1;SDS_P2;PMS_P1;PMS_P2;Temp;Humidity;BMP_temperature;BMP_pressure;BME280_temperature;BME280_humidity;BME280_pressure;Samples;Min_cycle;Max_cycle;Signal;HPM_P1;HPM_P2
2022/06/23 00:00:29;;;;;;;5.70;2.08;;;;;;;;;;5015634;28;20030;-72
2022/06/23 00:02:55;;;;;;;4.00;2.28;;;;;;;;;;5016760;28;20078;-73
2022/06/23 00:05:24;;;;;;;3.47;2.60;;;;;;;;;;5015735;28;20022;-73
2022/06/23 00:07:52;;;;;;;7.80;2.65;;;;;;;;;;5015903;28;20024;-74
2022/06/23 00:10:20;;;;;;;3.15;2.20;;;;;;;;;;5015422;28;20033;-74
2022/06/23 00:12:47;;;;;;;6.07;2.45;;;;;;;;;;5015259;28;20037;-72
2022/06/23 00:15:19;;;;;;;5.18;2.55;;;;;;;;;;5015406;28;20088;-72
2022/06/23 00:17:55;;;;;;;3.50;2.50;;;;;;;;;;5013724;28;20022;-72
2022/06/23 00:20:26;;;;;;;6.18;2.28;;;;;;;;;;5015057;28;20065;-73
2022/06/23 00:22:54;;;;;;;3.78;2.42;;;;;;;;;;5015283;28;20046;-72
2022/06/23 00:25:22;;;;;;;5.05;2.55;;;;;;;;;;5015272;28;20026;-72
2022/06/23 00:27:48;;;;;;;4.75;2.55;;;;;;;;;;5015215;28;20013;-73
2022/06/23 00:30:27;;;;;;;5.70;2.78;;;;;;;;;;5015987;28;20415;-73
2022/06/23 00:32:53;;;;;;;5.90;2.40;;;;;;;;;;5014960;28;20101;-73
2022/06/23 00:35:19;;;;;;;5.65;2.33;;;;;;;;;;5013488;28;20026;-73
2022/06/23 00:37:47;;;;;;;3.35;2.60;;;;;;;;;;5014763;28;20041;-73
2022/06/23 00:40:13;;;;;;;7.78;2.63;;;;;;;;;;5014752;28;20117;-73
2022/06/23 00:42:56;;;;;;;4.15;2.70;;;;;;;;;;5014666;28;20026;-73
2022/06/23 00:45:25;;;;;;;4.38;2.80;;;;;;;;;;5014498;28;20077;-72
2022/06/23 00:47:54;;;;;;;6.30;2.80;;;;;;;;;;5014552;28;20029;-73
2022/06/23 00:50:23;;;;;;;2.53;2.10;;;;;;;;;;5014919;28;20113;-72
2022/06/23 00:53:02;;;;;;;3.03;2.45;;;;;;;;;;5014500;28;20512;-71
2022/06/23 00:55:51;;;;;;;4.93;2.15;;;;;;;;;;5014192;28;20014;-73
2022/06/23 00:58:37;;;;;;;5.53;2.40;;;;;;;;;;5014605;28;20026;-72
2022/06/23 01:01:06;;;;;;;6.45;2.58;;;;;;;;;;5014555;28;20030;-73
2022/06/23 01:03:48;;;;;;;5.85;2.60;;;;;;;;;;5012074;28;20332;-72
2022/06/23 01:06:34;;;;;;;3.03;2.50;;;;;;;;;;5011788;28;20054;-73
2022/06/23 01:09:03;;;;;;;3.53;2.40;;;;;;;;;;4983685;28;20494;-72
2022/06/23 01:11:34;;;;;;;3.08;2.47;;;;;;;;;;5013902;28;20030;-74
2022/06/23 01:14:09;;;;;;;6.28;2.50;;;;;;;;;;5014025;28;20053;-72
2022/06/23 01:16:41;;;;;;;6.05;3.15;;;;;;;;;;5013058;28;20041;-72
2022/06/23 01:19:19;;;;;;;3.45;2.30;;;;;;;;;;5013953;28;20112;-73
2022/06/23 01:21:54;;;;;;;4.07;2.60;;;;;;;;;;5013741;28;20414;-73
2022/06/23 01:24:35;;;;;;;5.40;2.80;;;;;;;;;;5014106;28;20026;-73
2022/06/23 01:27:10;;;;;;;6.70;3.00;;;;;;;;;;5012991;28;20106;-75
2022/06/23 01:29:48;;;;;;;10.40;3.08;;;;;;;;;;5013708;28;20057;-74
2022/06/23 01:32:20;;;;;;;6.32;3.13;;;;;;;;;;5013338;28;20022;-72
2022/06/23 01:34:46;;;;;;;6.97;3.13;;;;;;;;;;5013734;28;20026;-75
2022/06/23 01:37:18;;;;;;;6.00;2.92;;;;;;;;;;5012686;28;20109;-72
2022/06/23 01:39:57;;;;;;;4.72;2.92;;;;;;;;;;5013445;28;20036;-72
2022/06/23 01:42:29;;;;;;;7.05;3.60;;;;;;;;;;5011868;28;20058;-72
2022/06/23 01:44:58;;;;;;;4.85;3.10;;;;;;;;;;5012202;28;20033;-72
2022/06/23 01:47:31;;;;;;;6.85;3.28;;;;;;;;;;5012169;28;20534;-72
2022/06/23 01:50:02;;;;;;;4.72;3.03;;;;;;;;;;5013353;28;20029;-72
2022/06/23 01:52:28;;;;;;;9.07;3.20;;;;;;;;;;5013086;28;20088;-72
2022/06/23 01:54:57;;;;;;;5.70;2.90;;;;;;;;;;5013762;28;20021;-72
2022/06/23 01:57:29;;;;;;;5.30;3.10;;;;;;;;;;5012600;28;20033;-73
2022/06/23 01:59:55;;;;;;;5.40;2.80;;;;;;;;;;5013275;28;20034;-72
2022/06/23 02:02:27;;;;;;;4.88;3.17;;;;;;;;;;5012830;28;20546;-71
2022/06/23 02:05:11;;;;;;;3.70;2.67;;;;;;;;;;5013182;28;20027;-73
2022/06/23 02:07:43;;;;;;;6.13;3.00;;;;;;;;;;5012224;28;20109;-73
2022/06/23 02:10:29;;;;;;;6.65;3.83;;;;;;;;;;5013034;28;20026;-72
2022/06/23 02:13:04;;;;;;;3.90;3.03;;;;;;;;;;4983189;28;20102;-74
2022/06/23 02:15:49;;;;;;;6.13;3.35;;;;;;;;;;5016121;28;20026;-75
2022/06/23 02:18:19;;;;;;;5.68;3.25;;;;;;;;;;5013781;28;20026;-73
2022/06/23 02:20:57;;;;;;;4.57;3.30;;;;;;;;;;5012811;28;20030;-72
2022/06/23 02:23:32;;;;;;;5.47;3.55;;;;;;;;;;5012996;28;20029;-72
2022/06/23 02:26:02;;;;;;;6.20;2.95;;;;;;;;;;5012643;28;20026;-73
2022/06/23 02:28:33;;;;;;;4.53;3.03;;;;;;;;;;5012860;28;20033;-74
2022/06/23 02:31:12;;;;;;;4.75;3.10;;;;;;;;;;5012940;28;20021;-72
2022/06/23 02:33:45;;;;;;;6.13;2.90;;;;;;;;;;5012655;28;20025;-73
2022/06/23 02:36:33;;;;;;;5.95;2.80;;;;;;;;;;5012476;28;20033;-73
2022/06/23 02:39:05;;;;;;;4.72;3.30;;;;;;;;;;5012578;28;20022;-72
2022/06/23 02:41:34;;;;;;;4.40;3.10;;;;;;;;;;5012416;28;20498;-73
2022/06/23 02:44:12;;;;;;;4.65;3.38;;;;;;;;;;5012531;28;20022;-73
2022/06/23 02:47:01;;;;;;;7.18;4.07;;;;;;;;;;5012229;28;20024;-75
2022/06/23 02:49:42;;;;;;;6.35;4.05;;;;;;;;;;5011152;28;20038;-73
2022/06/23 02:52:26;;;;;;;6.50;3.72;;;;;;;;;;5012444;28;20686;-72
2022/06/23 02:55:06;;;;;;;6.75;3.95;;;;;;;;;;5012269;28;20030;-75
2022/06/23 02:57:32;;;;;;;5.55;4.10;;;;;;;;;;5011622;28;20029;-74
2022/06/23 03:00:04;;;;;;;5.88;3.92;;;;;;;;;;5011830;28;20132;-74
2022/06/23 03:02:41;;;;;;;8.75;4.40;;;;;;;;;;5011954;28;20029;-73
2022/06/23 03:05:19;;;;;;;7.93;4.00;;;;;;;;;;5012632;28;20022;-73
2022/06/23 03:07:57;;;;;;;8.13;4.78;;;;;;;;;;5011999;28;20044;-73
2022/06/23 03:10:31;;;;;;;7.50;4.88;;;;;;;;;;5012190;28;20390;-72
2022/06/23 03:13:06;;;;;;;9.60;5.73;;;;;;;;;;5012366;28;20041;-76
2022/06/23 03:15:36;;;;;;;9.38;5.43;;;;;;;;;;5012432;28;20104;-74
2022/06/23 03:18:09;;;;;;;12.05;6.40;;;;;;;;;;5011960;28;20034;-74
2022/06/23 03:20:40;;;;;;;11.50;6.72;;;;;;;;;;5011769;28;20121;-76
2022/06/23 03:23:09;;;;;;;13.35;7.00;;;;;;;;;;5012235;28;20040;-74
2022/06/23 03:25:55;;;;;;;12.38;7.65;;;;;;;;;;5011857;28;20033;-74
2022/06/23 03:28:24;;;;;;;14.50;7.65;;;;;;;;;;5012229;28;20038;-75
2022/06/23 03:30:57;;;;;;;13.63;7.63;;;;;;;;;;5012033;28;20031;-77
2022/06/23 03:33:49;;;;;;;10.15;7.13;;;;;;;;;;5012029;28;20638;-74
2022/06/23 03:36:24;;;;;;;14.48;7.38;;;;;;;;;;5008852;28;20072;-71
2022/06/23 03:41:54;;;;;;;12.15;7.00;;;;;;;;;;5011809;28;20041;-72
2022/06/23 03:44:20;;;;;;;16.08;8.57;;;;;;;;;;5011822;28;20201;-72
2022/06/23 03:46:49;;;;;;;16.85;8.27;;;;;;;;;;5011695;28;20076;-73
2022/06/23 03:49:38;;;;;;;15.20;7.30;;;;;;;;;;5012000;28;20026;-71
2022/06/23 03:52:06;;;;;;;15.48;7.93;;;;;;;;;;5011907;28;20399;-71
2022/06/23 03:54:51;;;;;;;13.57;8.40;;;;;;;;;;5011888;28;20022;-72
2022/06/23 03:57:17;;;;;;;;;;;;;;;;;;5012296;28;20483;-73
2022/06/23 03:59:48;;;;;;;21.42;9.98;;;;;;;;;;5011348;28;19967;-72
2022/06/23 04:02:18;;;;;;;19.98;8.52;;;;;;;;;;5030794;28;20285;-71
2022/06/23 04:05:03;;;;;;;20.00;8.65;;;;;;;;;;5010341;28;20037;-71
2022/06/23 04:07:28;;;;;;;12.57;7.53;;;;;;;;;;5011397;28;20044;-71
2022/06/23 04:09:59;;;;;;;15.63;8.25;;;;;;;;;;5014333;28;20143;-72
2022/06/23 04:12:25;;;;;;;14.15;7.72;;;;;;;;;;5016039;28;20391;-73
2022/06/23 04:15:05;;;;;;;11.05;7.35;;;;;;;;;;5016167;28;20109;-73
2022/06/23 04:17:41;;;;;;;13.07;7.25;;;;;;;;;;5015315;28;20030;-72
2022/06/23 04:20:29;;;;;;;14.35;7.07;;;;;;;;;;5015464;28;20026;-73
2022/06/23 04:23:02;;;;;;;14.77;6.63;;;;;;;;;;5015638;28;20017;-71
2022/06/23 04:25:40;;;;;;;12.40;7.10;;;;;;;;;;5015482;28;20056;-73
2022/06/23 04:28:06;;;;;;;12.85;6.93;;;;;;;;;;5015299;28;20034;-75
2022/06/23 04:30:38;;;;;;;15.40;8.15;;;;;;;;;;5015790;28;20026;-73
2022/06/23 04:33:06;;;;;;;9.68;6.97;;;;;;;;;;5014070;28;20037;-73
2022/06/23 04:35:35;;;;;;;12.35;6.43;;;;;;;;;;5015229;28;20105;-73
2022/06/23 04:38:06;;;;;;;13.25;6.97;;;;;;;;;;5016087;28;20372;-74
2022/06/23 04:40:48;;;;;;;11.77;6.80;;;;;;;;;;5016108;28;20503;-73
2022/06/23 04:43:19;;;;;;;16.85;7.68;;;;;;;;;;5015722;28;20491;-74
2022/06/23 04:45:51;;;;;;;14.15;7.82;;;;;;;;;;5014520;28;20100;-74
2022/06/23 04:48:21;;;;;;;15.38;7.18;;;;;;;;;;5015211;28;20479;-75
2022/06/23 04:50:54;;;;;;;16.20;7.55;;;;;;;;;;5015575;28;20034;-75
2022/06/23 04:53:25;;;;;;;11.50;6.40;;;;;;;;;;5016164;28;20029;-73
2022/06/23 04:56:23;;;;;;;13.90;7.50;;;;;;;;;;5016007;28;20073;-73
2022/06/23 04:58:54;;;;;;;18.63;7.28;;;;;;;;;;4982460;28;20122;-73
2022/06/23 05:01:22;;;;;;;11.55;7.20;;;;;;;;;;5015480;28;20486;-74
2022/06/23 05:03:52;;;;;;;11.98;7.28;;;;;;;;;;5017965;28;20468;-72
2022/06/23 05:06:21;;;;;;;13.68;7.32;;;;;;;;;;5016097;28;20029;-74
2022/06/23 05:08:48;;;;;;;14.52;7.38;;;;;;;;;;5015423;28;20430;-74
2022/06/23 05:11:28;;;;;;;14.10;7.05;;;;;;;;;;5015191;28;20033;-73
2022/06/23 05:13:58;;;;;;;14.20;7.25;;;;;;;;;;5015351;28;20170;-72
2022/06/23 05:16:27;;;;;;;14.05;6.55;;;;;;;;;;5016904;28;20033;-74
2022/06/23 05:18:55;;;;;;;13.98;6.70;;;;;;;;;;5017288;28;20110;-73
2022/06/23 05:21:24;;;;;;;11.57;6.20;;;;;;;;;;5015983;28;20034;-73
2022/06/23 05:23:54;;;;;;;17.88;6.88;;;;;;;;;;5015367;28;20017;-73
2022/06/23 05:26:26;;;;;;;11.15;6.20;;;;;;;;;;5015090;28;20033;-74
2022/06/23 05:28:57;;;;;;;11.77;6.25;;;;;;;;;;5014350;28;20116;-73
2022/06/23 05:31:26;;;;;;;14.65;6.05;;;;;;;;;;5013718;28;20025;-74
2022/06/23 05:33:53;;;;;;;14.27;6.68;;;;;;;;;;5015024;28;20034;-73
2022/06/23 05:36:22;;;;;;;13.93;5.78;;;;;;;;;;5015228;28;20026;-76
2022/06/23 05:38:48;;;;;;;13.35;5.65;;;;;;;;;;5015843;28;20036;-76
2022/06/23 05:41:18;;;;;;;15.63;5.68;;;;;;;;;;5014317;28;20484;-74
2022/06/23 05:43:46;;;;;;;15.82;5.65;;;;;;;;;;5015081;28;20065;-74
2022/06/23 05:46:17;;;;;;;16.27;5.40;;;;;;;;;;5014446;28;20108;-75
2022/06/23 05:48:43;;;;;;;10.32;5.57;;;;;;;;;;5014682;28;20113;-77
2022/06/23 05:51:22;;;;;;;17.42;6.60;;;;;;;;;;5014655;28;20062;-74
2022/06/23 05:53:48;;;;;;;12.88;4.38;;;;;;;;;;5014562;28;20022;-73
2022/06/23 05:56:25;;;;;;;12.57;4.78;;;;;;;;;;5015810;28;20041;-75
2022/06/23 05:59:01;;;;;;;11.40;4.43;;;;;;;;;;5013841;28;20038;-74
2022/06/23 06:01:34;;;;;;;12.23;4.45;;;;;;;;;;5016160;28;20034;-73
2022/06/23 06:04:03;;;;;;;13.25;4.90;;;;;;;;;;5014769;28;20060;-74
2022/06/23 06:06:30;;;;;;;16.30;4.85;;;;;;;;;;5013112;28;20468;-72
2022/06/23 06:11:46;;;;;;;10.07;4.32;;;;;;;;;;5013876;28;20037;-72
2022/06/23 06:14:14;;;;;;;12.80;5.05;;;;;;;;;;5014069;28;20034;-74
2022/06/23 06:16:40;;;;;;;10.82;4.55;;;;;;;;;;5014573;28;20035;-73
2022/06/23 06:19:06;;;;;;;15.93;4.95;;;;;;;;;;5013437;28;20030;-73
2022/06/23 06:21:32;;;;;;;9.77;4.00;;;;;;;;;;5013115;28;20062;-73
2022/06/23 06:24:01;;;;;;;12.25;4.72;;;;;;;;;;5013896;28;20040;-73
2022/06/23 06:26:38;;;;;;;14.75;4.32;;;;;;;;;;5013450;28;20049;-73
2022/06/23 06:29:13;;;;;;;17.63;4.60;;;;;;;;;;5066384;22;20049;-77
2022/06/23 06:31:44;;;;;;;11.30;4.63;;;;;;;;;;5053656;28;20354;-76
2022/06/23 06:34:14;;;;;;;13.10;5.05;;;;;;;;;;5052870;28;20025;-75
2022/06/23 06:36:42;;;;;;;16.95;4.80;;;;;;;;;;5055790;28;20345;-78
2022/06/23 06:39:08;;;;;;;11.02;4.32;;;;;;;;;;5054769;28;20448;-75
2022/06/23 06:41:34;;;;;;;9.55;4.28;;;;;;;;;;5053256;28;20116;-75
2022/06/23 06:44:01;;;;;;;10.30;3.83;;;;;;;;;;5038904;28;20045;-77
2022/06/23 06:46:27;;;;;;;14.43;4.93;;;;;;;;;;5035573;28;20071;-76
2022/06/23 06:48:53;;;;;;;18.30;4.50;;;;;;;;;;5053806;28;20013;-78
2022/06/23 06:51:24;;;;;;;9.93;4.15;;;;;;;;;;5053538;28;20435;-78
2022/06/23 06:53:58;;;;;;;14.68;4.43;;;;;;;;;;5053951;28;20028;-78
2022/06/23 06:56:24;;;;;;;;;;;;;;;;;;5056802;28;20036;-78
2022/06/23 06:58:59;;;;;;;12.20;3.88;;;;;;;;;;5055682;28;19905;-77
2022/06/23 07:01:26;;;;;;;14.60;5.35;;;;;;;;;;5035835;28;20029;-75
2022/06/23 07:03:54;;;;;;;16.52;4.80;;;;;;;;;;5053604;28;20016;-77
2022/06/23 07:06:20;;;;;;;13.30;4.90;;;;;;;;;;5035111;28;20032;-75
2022/06/23 07:09:08;;;;;;;12.98;4.40;;;;;;;;;;5053042;28;20017;-76
2022/06/23 07:11:40;;;;;;;12.27;4.35;;;;;;;;;;5035616;28;20114;-75
2022/06/23 07:14:11;;;;;;;14.80;4.80;;;;;;;;;;5053125;28;20462;-76
2022/06/23 07:16:58;;;;;;;10.45;4.43;;;;;;;;;;5052642;28;20109;-74
2022/06/23 07:19:38;;;;;;;16.60;4.80;;;;;;;;;;5053679;28;20028;-76
2022/06/23 07:22:15;;;;;;;9.23;4.22;;;;;;;;;;5037039;28;20025;-76
2022/06/23 07:24:44;;;;;;;13.07;4.53;;;;;;;;;;5037064;28;20038;-76
2022/06/23 07:27:16;;;;;;;15.95;4.80;;;;;;;;;;5059156;28;20086;-76
2022/06/23 07:29:54;;;;;;;10.77;3.97;;;;;;;;;;5071180;28;20035;-75
2022/06/23 07:32:20;;;;;;;14.57;4.40;;;;;;;;;;5076280;28;20021;-76
2022/06/23 07:34:49;;;;;;;10.40;3.80;;;;;;;;;;5069608;28;20096;-76
2022/06/23 07:37:21;;;;;;;15.60;4.38;;;;;;;;;;5068169;28;20039;-76
2022/06/23 07:39:49;;;;;;;12.10;4.60;;;;;;;;;;5076999;28;20033;-76
2022/06/23 07:42:21;;;;;;;8.55;3.92;;;;;;;;;;5072438;28;20033;-76
2022/06/23 07:44:51;;;;;;;12.90;4.15;;;;;;;;;;5054106;28;20067;-75
2022/06/23 07:47:18;;;;;;;12.07;4.20;;;;;;;;;;5056403;28;20025;-77
2022/06/23 07:49:44;;;;;;;10.00;3.83;;;;;;;;;;5057425;28;20040;-77
2022/06/23 07:52:14;;;;;;;13.80;3.92;;;;;;;;;;5056460;28;20025;-76
2022/06/23 07:54:40;;;;;;;15.70;4.25;;;;;;;;;;5056133;28;20021;-74
2022/06/23 07:57:06;;;;;;;10.60;4.10;;;;;;;;;;5056199;28;20031;-75
2022/06/23 07:59:47;;;;;;;13.30;4.20;;;;;;;;;;5056012;28;20024;-75
2022/06/23 08:02:14;;;;;;;14.75;4.30;;;;;;;;;;5038604;28;20025;-77
2022/06/23 08:04:59;;;;;;;13.00;4.45;;;;;;;;;;5053258;28;20465;-75
2022/06/23 08:07:26;;;;;;;12.25;3.97;;;;;;;;;;5048768;28;20028;-76
2022/06/23 08:09:54;;;;;;;18.80;5.07;;;;;;;;;;5055594;28;20021;-74
2022/06/23 08:18:11;;;;;;;16.83;4.18;;;;;;;;;;5055658;28;20497;-74
2022/06/23 08:20:40;;;;;;;10.20;3.80;;;;;;;;;;5055295;28;20029;-76
2022/06/23 08:23:07;;;;;;;9.00;3.67;;;;;;;;;;5056145;28;20121;-77
2022/06/23 08:25:34;;;;;;;13.27;3.92;;;;;;;;;;5038302;28;20019;-76
2022/06/23 08:28:01;;;;;;;9.15;3.78;;;;;;;;;;5056007;28;20504;-77
2022/06/23 08:30:27;;;;;;;9.27;4.13;;;;;;;;;;5039073;28;20045;-77
2022/06/23 08:32:54;;;;;;;10.65;3.70;;;;;;;;;;5055193;28;20104;-76
2022/06/23 08:35:41;;;;;;;9.43;3.25;;;;;;;;;;5055292;28;20025;-74
2022/06/23 08:38:09;;;;;;;10.40;3.40;;;;;;;;;;5037093;28;20024;-76
2022/06/23 08:40:35;;;;;;;10.88;4.43;;;;;;;;;;5054806;28;20025;-76
2022/06/23 08:43:11;;;;;;;18.25;4.13;;;;;;;;;;5055035;28;20021;-76
2022/06/23 08:45:58;;;;;;;12.43;3.85;;;;;;;;;;5054586;28;20033;-76
2022/06/23 08:48:29;;;;;;;18.48;5.72;;;;;;;;;;5024117;28;20047;-76
2022/06/23 08:50:58;;;;;;;13.35;4.30;;;;;;;;;;5056321;28;20113;-76
2022/06/23 08:53:30;;;;;;;11.13;5.20;;;;;;;;;;5055943;28;20029;-77
2022/06/23 08:55:56;;;;;;;9.65;3.45;;;;;;;;;;5054885;28;20128;-77
2022/06/23 08:58:29;;;;;;;10.43;3.70;;;;;;;;;;5057062;28;20029;-77
2022/06/23 09:01:14;;;;;;;17.38;6.22;;;;;;;;;;5061954;28;20029;-76
2022/06/23 09:03:40;;;;;;;;;;;;;;;;;;5066006;28;20029;-75
2022/06/23 09:06:12;;;;;;;6.78;3.22;;;;;;;;;;5068104;28;19904;-75
2022/06/23 09:08:47;;;;;;;18.15;4.82;;;;;;;;;;5069055;28;20025;-75
2022/06/23 09:11:39;;;;;;;11.43;3.80;;;;;;;;;;5067694;28;20040;-76
2022/06/23 09:14:11;;;;;;;13.55;4.35;;;;;;;;;;5064063;28;20132;-74
2022/06/23 09:16:37;;;;;;;14.38;4.20;;;;;;;;;;5073051;28;20033;-75
2022/06/23 09:19:23;;;;;;;12.02;4.13;;;;;;;;;;5075281;28;20029;-76
2022/06/23 09:22:11;;;;;;;11.50;4.32;;;;;;;;;;5067858;28;20040;-76
2022/06/23 09:24:42;;;;;;;15.55;4.43;;;;;;;;;;5055001;28;20016;-76
2022/06/23 09:27:14;;;;;;;10.32;3.67;;;;;;;;;;5054782;28;20029;-76
2022/06/23 09:29:40;;;;;;;8.70;3.50;;;;;;;;;;5054944;28;20083;-76
2022/06/23 09:32:11;;;;;;;12.32;3.83;;;;;;;;;;5054394;28;20417;-74
2022/06/23 09:34:55;;;;;;;18.30;3.78;;;;;;;;;;5054199;28;20056;-75
2022/06/23 09:37:31;;;;;;;11.32;3.50;;;;;;;;;;5036104;28;20466;-75
2022/06/23 09:40:15;;;;;;;8.52;2.97;;;;;;;;;;5054001;28;20036;-75
2022/06/23 09:43:00;;;;;;;10.50;4.03;;;;;;;;;;5054415;28;20029;-76
2022/06/23 09:45:32;;;;;;;10.65;3.38;;;;;;;;;;5054551;28;20021;-76
2022/06/23 09:47:58;;;;;;;12.55;3.50;;;;;;;;;;5055149;28;20478;-76
2022/06/23 09:50:35;;;;;;;9.48;3.00;;;;;;;;;;5056225;28;20087;-75
2022/06/23 09:53:23;;;;;;;12.30;3.97;;;;;;;;;;5058201;28;20021;-75
2022/06/23 09:56:08;;;;;;;8.30;3.35;;;;;;;;;;5067494;28;20029;-76
2022/06/23 09:58:40;;;;;;;8.35;3.40;;;;;;;;;;5064248;28;20394;-76
2022/06/23 10:01:18;;;;;;;13.35;3.67;;;;;;;;;;5055184;28;20029;-77
2022/06/23 10:03:53;;;;;;;12.18;3.65;;;;;;;;;;5059623;28;20025;-76
2022/06/23 10:06:33;;;;;;;12.88;3.33;;;;;;;;;;5074717;28;20025;-74
2022/06/23 10:09:12;;;;;;;11.70;3.88;;;;;;;;;;5076186;28;20033;-76
2022/06/23 10:11:56;;;;;;;8.73;3.42;;;;;;;;;;5077733;28;20033;-75
2022/06/23 10:14:29;;;;;;;11.32;3.40;;;;;;;;;;5077007;28;20073;-74
2022/06/23 10:17:03;;;;;;;16.75;3.25;;;;;;;;;;5077071;28;20029;-75
2022/06/23 10:19:49;;;;;;;10.40;3.60;;;;;;;;;;5043779;28;20036;-76
2022/06/23 10:22:18;;;;;;;10.98;6.05;;;;;;;;;;5053755;28;20075;-76
2022/06/23 10:24:51;;;;;;;10.95;3.20;;;;;;;;;;5053675;28;20122;-75
2022/06/23 10:27:29;;;;;;;9.53;3.40;;;;;;;;;;5053056;28;20017;-76
2022/06/23 10:30:08;;;;;;;10.02;4.00;;;;;;;;;;5053159;28;20047;-75
2022/06/23 10:32:49;;;;;;;8.25;2.90;;;;;;;;;;5053046;28;20064;-75
2022/06/23 10:35:34;;;;;;;7.20;2.88;;;;;;;;;;5052922;28;20025;-75
2022/06/23 10:38:00;;;;;;;6.88;2.55;;;;;;;;;;5035064;28;20120;-75
2022/06/23 10:40:37;;;;;;;9.57;3.05;;;;;;;;;;5053359;28;20100;-76
2022/06/23 10:43:16;;;;;;;13.35;3.05;;;;;;;;;;5053227;28;20481;-75
2022/06/23 10:45:48;;;;;;;13.32;2.88;;;;;;;;;;5052277;28;20083;-75
2022/06/23 10:48:33;;;;;;;11.82;3.72;;;;;;;;;;5053533;28;20794;-75
2022/06/23 10:51:22;;;;;;;5.88;2.70;;;;;;;;;;5051666;28;20533;-75
2022/06/23 10:54:26;;;;;;;5.50;2.47;;;;;;;;;;5059361;28;20036;-75
2022/06/23 10:57:02;;;;;;;8.25;2.80;;;;;;;;;;4995685;28;20026;-75
2022/06/23 10:59:46;;;;;;;7.40;2.67;;;;;;;;;;4989242;28;20141;-75
2022/06/23 11:02:24;;;;;;;7.22;3.10;;;;;;;;;;5031085;28;20048;-75
2022/06/23 11:04:56;;;;;;;12.35;3.33;;;;;;;;;;5051452;28;20036;-76
2022/06/23 11:07:41;;;;;;;9.07;3.30;;;;;;;;;;5035326;28;20048;-76
2022/06/23 11:10:13;;;;;;;5.35;3.17;;;;;;;;;;5033408;28;20191;-76
2022/06/23 11:12:49;;;;;;;9.18;2.97;;;;;;;;;;5052419;28;20550;-75
2022/06/23 11:15:28;;;;;;;9.65;3.30;;;;;;;;;;5051338;28;20024;-76
2022/06/23 11:18:00;;;;;;;8.70;3.05;;;;;;;;;;5051394;28;20067;-75
2022/06/23 11:20:44;;;;;;;10.77;3.13;;;;;;;;;;5051990;28;20028;-76
2022/06/23 11:23:29;;;;;;;12.48;3.22;;;;;;;;;;5052186;28;20028;-76
2022/06/23 11:25:55;;;;;;;7.40;3.00;;;;;;;;;;5051895;28;20626;-76
2022/06/23 11:28:49;;;;;;;10.13;3.22;;;;;;;;;;5052131;28;20025;-75
2022/06/23 11:31:24;;;;;;;5.20;2.30;;;;;;;;;;5053076;28;20025;-76
2022/06/23 11:33:59;;;;;;;9.70;3.90;;;;;;;;;;5052238;28;20021;-76
2022/06/23 11:36:34;;;;;;;6.85;3.20;;;;;;;;;;5054842;28;20017;-75
2022/06/23 11:39:03;;;;;;;9.18;3.08;;;;;;;;;;5052438;28;20018;-75
2022/06/23 11:41:47;;;;;;;10.35;3.00;;;;;;;;;;5051975;28;20474;-76
2022/06/23 11:44:29;;;;;;;7.40;2.42;;;;;;;;;;5052526;28;20397;-73
2022/06/23 11:47:07;;;;;;;6.25;2.65;;;;;;;;;;5052186;28;20025;-76
2022/06/23 11:49:36;;;;;;;6.72;3.75;;;;;;;;;;5052926;28;20096;-76
2022/06/23 11:52:05;;;;;;;9.50;2.75;;;;;;;;;;5053000;28;20536;-75
2022/06/23 11:54:53;;;;;;;6.70;2.40;;;;;;;;;;5053446;28;20032;-75
2022/06/23 11:57:25;;;;;;;5.50;2.20;;;;;;;;;;5034720;28;20040;-76
2022/06/23 11:59:55;;;;;;;7.05;2.10;;;;;;;;;;5034772;28;20024;-76
2022/06/23 12:02:21;;;;;;;8.18;2.70;;;;;;;;;;5035611;28;20466;-77
2022/06/23 12:04:54;;;;;;;7.00;2.28;;;;;;;;;;5054551;28;20033;-76
2022/06/23 12:07:39;;;;;;;9.60;2.10;;;;;;;;;;5053497;28;20025;-75
2022/06/23 12:10:05;;;;;;;;;;;;;;;;;;5055578;28;20255;-75
2022/06/23 12:12:33;;;;;;;7.15;2.00;;;;;;;;;;5054916;28;19904;-77
2022/06/23 12:14:59;;;;;;;6.97;2.33;;;;;;;;;;5057325;28;20028;-77
2022/06/23 12:17:27;;;;;;;10.60;2.40;;;;;;;;;;5062367;28;20055;-76
2022/06/23 12:20:00;;;;;;;5.70;2.38;;;;;;;;;;5057565;28;20029;-75
2022/06/23 12:22:32;;;;;;;7.13;2.72;;;;;;;;;;5057584;28;20641;-76
2022/06/23 12:25:12;;;;;;;4.60;2.55;;;;;;;;;;5038593;28;20047;-77
2022/06/23 12:27:42;;;;;;;7.63;2.63;;;;;;;;;;5060913;28;20390;-76
2022/06/23 12:30:14;;;;;;;5.78;2.53;;;;;;;;;;5078270;23;20076;-74
2022/06/23 12:32:40;;;;;;;6.93;2.80;;;;;;;;;;5056619;28;20052;-75
2022/06/23 12:35:22;;;;;;;8.43;2.70;;;;;;;;;;5056426;28;20022;-73
2022/06/23 12:38:07;;;;;;;9.68;4.70;;;;;;;;;;5056964;28;20036;-74
2022/06/23 12:40:33;;;;;;;8.00;2.25;;;;;;;;;;5056338;28;20025;-73
2022/06/23 12:43:04;;;;;;;4.78;2.28;;;;;;;;;;5057108;28;20158;-74
2022/06/23 12:45:55;;;;;;;5.03;3.53;;;;;;;;;;5057221;28;20516;-75
2022/06/23 12:48:21;;;;;;;11.32;6.60;;;;;;;;;;5069070;28;20032;-74
2022/06/23 12:50:47;;;;;;;7.13;2.40;;;;;;;;;;5076416;28;20056;-75
2022/06/23 12:53:19;;;;;;;5.43;2.72;;;;;;;;;;5065284;28;20029;-74
2022/06/23 12:55:59;;;;;;;6.07;2.20;;;;;;;;;;5055467;28;20032;-74
2022/06/23 12:58:28;;;;;;;6.50;2.55;;;;;;;;;;5060011;28;20053;-74
2022/06/23 13:00:59;;;;;;;5.07;2.70;;;;;;;;;;5062262;28;20044;-76
2022/06/23 13:03:25;;;;;;;9.48;2.65;;;;;;;;;;5061727;28;20047;-74
2022/06/23 13:05:55;;;;;;;6.47;2.50;;;;;;;;;;5059809;28;20021;-75
2022/06/23 13:08:33;;;;;;;10.50;2.45;;;;;;;;;;5056320;28;20155;-76
2022/06/23 13:11:01;;;;;;;6.88;2.35;;;;;;;;;;5064684;28;20029;-75
2022/06/23 13:13:43;;;;;;;9.43;2.47;;;;;;;;;;5060285;28;20033;-75
2022/06/23 13:16:23;;;;;;;6.53;2.95;;;;;;;;;;5057586;28;20051;-75
2022/06/23 13:19:00;;;;;;;4.40;2.50;;;;;;;;;;5055808;28;20029;-74
2022/06/23 13:21:26;;;;;;;5.82;2.50;;;;;;;;;;5053822;28;20025;-75
2022/06/23 13:23:59;;;;;;;7.88;2.60;;;;;;;;;;5055907;28;20075;-74
2022/06/23 13:26:27;;;;;;;7.18;2.40;;;;;;;;;;5061451;28;20508;-75
2022/06/23 13:29:01;;;;;;;4.88;2.30;;;;;;;;;;5061494;28;20028;-76
2022/06/23 13:31:30;;;;;;;9.20;3.22;;;;;;;;;;5064540;28;20029;-75
2022/06/23 13:33:59;;;;;;;6.45;2.72;;;;;;;;;;5063613;28;20048;-75
2022/06/23 13:36:47;;;;;;;5.25;2.30;;;;;;;;;;5064109;28;20033;-75
2022/06/23 13:39:19;;;;;;;7.82;2.70;;;;;;;;;;5060024;28;20029;-74
2022/06/23 13:41:49;;;;;;;8.63;2.38;;;;;;;;;;5056837;28;20025;-75
2022/06/23 13:44:19;;;;;;;4.70;2.33;;;;;;;;;;5057661;28;20021;-76
2022/06/23 13:46:50;;;;;;;9.43;2.20;;;;;;;;;;5057326;28;20037;-75
2022/06/23 13:49:22;;;;;;;11.77;2.42;;;;;;;;;;5058823;28;20025;-75
2022/06/23 13:51:54;;;;;;;6.63;2.40;;;;;;;;;;5056751;28;20029;-75
2022/06/23 13:54:39;;;;;;;7.82;2.63;;;;;;;;;;5057888;28;20029;-75
2022/06/23 13:57:24;;;;;;;6.95;2.60;;;;;;;;;;5055505;28;20033;-75
2022/06/23 14:00:05;;;;;;;3.97;2.47;;;;;;;;;;5055898;28;20051;-75
2022/06/23 14:02:34;;;;;;;4.35;2.53;;;;;;;;;;5054003;28;20031;-75
2022/06/23 14:05:23;;;;;;;9.48;2.95;;;;;;;;;;5055552;28;20062;-74
2022/06/23 14:07:51;;;;;;;7.05;2.65;;;;;;;;;;5054614;28;20740;-75
2022/06/23 14:10:27;;;;;;;9.65;2.50;;;;;;;;;;5054481;28;20040;-74
2022/06/23 14:13:02;;;;;;;7.75;2.45;;;;;;;;;;5054782;28;20064;-74
2022/06/23 14:15:35;;;;;;;6.00;3.28;;;;;;;;;;5054421;28;20036;-74
2022/06/23 14:18:07;;;;;;;8.50;2.40;;;;;;;;;;5053947;28;20036;-75
2022/06/23 14:20:50;;;;;;;6.20;2.05;;;;;;;;;;5053740;28;20428;-75
2022/06/23 14:23:30;;;;;;;9.05;2.53;;;;;;;;;;5053801;28;20025;-75
2022/06/23 14:26:02;;;;;;;6.28;2.28;;;;;;;;;;5052939;28;20021;-75
2022/06/23 14:28:45;;;;;;;4.78;2.00;;;;;;;;;;5054596;28;20028;-77
2022/06/23 14:31:11;;;;;;;4.10;2.08;;;;;;;;;;5053081;28;20087;-74
2022/06/23 14:33:43;;;;;;;5.82;1.95;;;;;;;;;;5054081;28;20029;-75
2022/06/23 14:36:16;;;;;;;7.22;2.33;;;;;;;;;;5062688;28;20104;-75
2022/06/23 14:38:51;;;;;;;7.75;4.50;;;;;;;;;;5056057;28;20028;-75
2022/06/23 14:41:27;;;;;;;4.85;2.67;;;;;;;;;;5054503;28;20445;-76
2022/06/23 14:44:05;;;;;;;9.10;2.20;;;;;;;;;;5055002;28;20025;-75
2022/06/23 14:46:50;;;;;;;3.72;2.08;;;;;;;;;;5053907;28;20041;-76
2022/06/23 14:49:24;;;;;;;8.57;2.55;;;;;;;;;;5053472;28;20065;-76
2022/06/23 14:51:56;;;;;;;7.38;2.30;;;;;;;;;;5053976;28;20025;-76
2022/06/23 14:54:31;;;;;;;6.70;2.53;;;;;;;;;;5054230;28;20577;-77
2022/06/23 14:57:03;;;;;;;5.80;2.03;;;;;;;;;;5055709;28;20032;-77
2022/06/23 14:59:38;;;;;;;6.53;2.58;;;;;;;;;;5055676;28;20470;-77
2022/06/23 15:02:04;;;;;;;6.88;2.42;;;;;;;;;;5055529;28;20036;-75
2022/06/23 15:04:47;;;;;;;4.10;1.83;;;;;;;;;;5054476;28;20027;-75
2022/06/23 15:07:21;;;;;;;10.43;2.10;;;;;;;;;;5055934;28;20021;-75
2022/06/23 15:09:52;;;;;;;6.00;2.50;;;;;;;;;;5054701;28;20025;-75
2022/06/23 15:12:21;;;;;;;6.65;1.92;;;;;;;;;;5054122;28;20021;-75
2022/06/23 15:14:47;;;;;;;4.88;1.80;;;;;;;;;;5057827;28;20002;-75
2022/06/23 15:17:16;;;;;;;5.00;1.95;;;;;;;;;;5072459;28;20524;-75
2022/06/23 15:19:42;;;;;;;6.45;3.97;;;;;;;;;;5069407;28;20024;-75
2022/06/23 15:25:18;;;;;;;5.70;2.03;;;;;;;;;;5051986;28;20151;-74
2022/06/23 15:27:44;;;;;;;6.28;2.10;;;;;;;;;;5053090;28;20081;-74
2022/06/23 15:30:13;;;;;;;3.15;2.00;;;;;;;;;;5053515;28;20053;-75